Time;durP1;ratioP1;P1;durP2;ratioP2;P2;SDS_P1;SDS_P2;PMS_P1;PMS_P2;Temp;Humidity;BMP_temperature;BMP_pressure;BME280_temperature;BME280_humidity;BME280_pressure;Samples;Min_cycle;Max_cycle;Signal;HPM_P1;HPM_P2
2022/07/19 00:00:11;;;;;;;4.53;3.83;;;21.40;1.00;;;;;;5034405;28;20198;-83
2022/07/19 00:02:38;;;;;;;3.92;3.53;;;21.30;1.00;;;;;;5033935;28;20894;-82
2022/07/19 00:05:07;;;;;;;4.40;3.83;;;21.30;1.00;;;;;;5033759;28;20696;-82
2022/07/19 00:07:34;;;;;;;4.28;3.58;;;21.30;1.00;;;;;;5034676;28;20226;-82
2022/07/19 00:10:01;;;;;;;4.43;3.85;;;21.20;1.00;;;;;;5033349;28;20615;-81
2022/07/19 00:12:28;;;;;;;5.18;3.70;;;21.10;11.90;;;;;;5034035;28;20261;-82
2022/07/19 00:14:56;;;;;;;4.25;3.80;;;21.10;31.40;;;;;;5033289;28;20194;-82
2022/07/19 00:17:23;;;;;;;4.47;3.92;;;21.10;57.30;;;;;;5034309;28;20860;-82
2022/07/19 00:19:50;;;;;;;6.60;4.43;;;21.10;72.40;;;;;;5033346;28;20221;-82
2022/07/19 00:22:17;;;;;;;5.30;3.90;;;21.10;82.00;;;;;;5034395;28;20193;-82
2022/07/19 00:24:44;;;;;;;5.07;3.85;;;21.00;89.10;;;;;;5034161;28;20605;-83
2022/07/19 00:27:11;;;;;;;4.32;3.92;;;20.90;92.00;;;;;;5033719;28;20205;-82
2022/07/19 00:29:38;;;;;;;4.20;3.63;;;20.90;94.40;;;;;;5034228;28;20285;-82
2022/07/19 00:32:07;;;;;;;4.00;3.60;;;20.90;96.70;;;;;;5030267;28;20226;-82
2022/07/19 00:34:34;;;;;;;4.55;4.15;;;20.90;97.00;;;;;;5014731;28;20210;-82
2022/07/19 00:37:01;;;;;;;4.38;3.40;;;20.80;98.20;;;;;;5026735;28;20206;-82
2022/07/19 00:39:28;;;;;;;5.22;4.15;;;20.80;99.90;;;;;;5021104;28;20218;-83
2022/07/19 00:41:55;;;;;;;4.53;4.05;;;20.80;99.90;;;;;;5022794;28;20230;-81
2022/07/19 00:44:23;;;;;;;4.03;3.63;;;20.70;99.90;;;;;;5021742;28;20534;-83
2022/07/19 00:46:50;;;;;;;4.15;3.75;;;20.70;99.90;;;;;;5014726;28;20262;-83
2022/07/19 00:49:18;;;;;;;5.25;3.88;;;20.60;99.90;;;;;;5013501;28;20208;-82
2022/07/19 00:51:46;;;;;;;5.30;3.70;;;20.60;99.90;;;;;;5014870;28;20289;-82
2022/07/19 00:54:14;;;;;;;4.00;3.58;;;20.60;99.90;;;;;;5024459;28;20211;-82
2022/07/19 00:56:42;;;;;;;4.15;3.72;;;20.60;99.90;;;;;;5033982;28;20677;-83
2022/07/19 00:59:10;;;;;;;4.43;4.00;;;20.50;99.90;;;;;;5032612;28;20613;-82
2022/07/19 01:01:37;;;;;;;4.32;3.78;;;20.50;99.90;;;;;;5032740;28;20786;-83
2022/07/19 01:04:03;;;;;;;5.03;3.92;;;20.50;99.90;;;;;;5033130;28;20777;-82
2022/07/19 01:06:33;;;;;;;4.50;4.10;;;20.40;99.90;;;;;;5031875;28;20206;-81
2022/07/19 01:09:00;;;;;;;4.05;3.50;;;20.40;99.90;;;;;;5032262;28;20208;-81
2022/07/19 01:11:27;;;;;;;5.97;4.20;;;20.40;99.90;;;;;;5033222;28;20622;-81
2022/07/19 01:13:54;;;;;;;5.10;4.57;;;20.40;99.90;;;;;;5032519;28;20213;-81
2022/07/19 01:16:21;;;;;;;4.70;4.28;;;20.40;99.90;;;;;;5033038;28;20214;-81
2022/07/19 01:18:49;;;;;;;5.78;5.05;;;20.30;99.90;;;;;;5016083;28;20290;-82
2022/07/19 01:21:22;;;;;;;4.90;4.35;;;20.30;99.90;;;;;;5013516;28;20207;-81
2022/07/19 01:23:49;;;;;;;5.03;4.07;;;20.30;99.90;;;;;;5017747;28;20248;-79
2022/07/19 01:26:17;;;;;;;4.95;4.15;;;20.20;99.90;;;;;;5033311;28;20291;-81
2022/07/19 01:28:44;;;;;;;4.20;3.80;;;20.20;99.90;;;;;;5032936;28;20198;-81
2022/07/19 01:31:11;;;;;;;5.35;4.82;;;20.20;99.90;;;;;;5030926;28;20231;-80
2022/07/19 01:33:42;;;;;;;5.45;4.95;;;20.20;99.90;;;;;;5033012;28;20195;-82
2022/07/19 01:36:09;;;;;;;4.85;4.35;;;20.10;99.90;;;;;;5030531;28;20752;-81
2022/07/19 01:38:39;;;;;;;6.60;4.63;;;20.10;99.90;;;;;;5013641;28;20769;-81
2022/07/19 01:41:06;;;;;;;5.45;4.72;;;20.00;99.90;;;;;;5032884;28;20233;-82
2022/07/19 01:43:34;;;;;;;5.18;4.68;;;20.00;99.90;;;;;;5032217;28;20974;-83
2022/07/19 01:46:01;;;;;;;5.95;5.35;;;20.00;99.90;;;;;;5032394;28;20199;-82
2022/07/19 01:48:28;;;;;;;4.55;4.15;;;19.90;99.90;;;;;;5031880;28;20774;-83
2022/07/19 01:50:55;;;;;;;5.63;4.80;;;19.90;99.90;;;;;;5031838;28;20508;-81
2022/07/19 01:53:22;;;;;;;5.30;4.80;;;19.90;99.90;;;;;;5032082;28;20290;-81
2022/07/19 01:55:50;;;;;;;6.65;5.72;;;19.90;99.90;;;;;;5012852;28;20294;-81
2022/07/19 01:58:17;;;;;;;7.35;5.10;;;19.90;99.90;;;;;;5023358;28;20203;-81
2022/07/19 02:00:44;;;;;;;5.80;5.13;;;19.80;99.90;;;;;;5038985;23;20237;-82
2022/07/19 02:03:11;;;;;;;4.82;4.32;;;19.80;99.90;;;;;;5032362;28;20234;-83
2022/07/19 02:05:38;;;;;;;6.60;4.70;;;19.80;99.90;;;;;;5031687;28;20214;-82
2022/07/19 02:08:05;;;;;;;5.95;5.35;;;19.80;99.90;;;;;;5031404;28;20212;-82
2022/07/19 02:10:33;;;;;;;7.05;4.95;;;19.70;99.90;;;;;;5032368;28;20231;-82
2022/07/19 02:13:01;;;;;;;5.63;4.68;;;19.70;99.90;;;;;;5031135;28;20198;-82
2022/07/19 02:15:28;;;;;;;5.95;5.32;;;19.70;99.90;;;;;;5032402;28;20683;-82
2022/07/19 02:17:55;;;;;;;5.70;4.78;;;19.70;99.90;;;;;;5032230;28;20279;-82
2022/07/19 02:20:22;;;;;;;6.43;5.18;;;19.70;99.90;;;;;;5032111;28;20210;-82
2022/07/19 02:22:50;;;;;;;6.45;5.45;;;19.70;99.90;;;;;;5033893;28;20190;-80
2022/07/19 02:25:17;;;;;;;6.60;5.07;;;19.70;99.90;;;;;;5023806;28;20215;-81
2022/07/19 02:27:44;;;;;;;6.38;5.22;;;19.60;99.90;;;;;;5012602;28;20245;-81
2022/07/19 02:30:13;;;;;;;5.78;5.05;;;19.60;99.90;;;;;;5022527;28;20718;-80
2022/07/19 02:32:41;;;;;;;4.95;4.47;;;19.60;99.90;;;;;;5031918;28;20199;-80
2022/07/19 02:35:10;;;;;;;5.28;4.50;;;19.50;99.90;;;;;;5032029;28;20199;-80
2022/07/19 02:37:37;;;;;;;5.35;4.20;;;19.50;99.90;;;;;;5032649;28;20290;-79
2022/07/19 02:40:05;;;;;;;5.57;4.53;;;19.50;99.90;;;;;;5031910;28;20294;-80
2022/07/19 02:42:32;;;;;;;5.00;4.38;;;19.50;99.90;;;;;;5032061;28;20227;-81
2022/07/19 02:44:59;;;;;;;4.43;3.90;;;19.40;99.90;;;;;;5031516;28;20309;-79
2022/07/19 02:47:27;;;;;;;5.75;4.40;;;19.40;99.90;;;;;;5030070;28;20205;-79
2022/07/19 02:49:54;;;;;;;6.00;5.00;;;19.40;99.90;;;;;;5031173;28;20210;-80
2022/07/19 02:52:20;;;;;;;5.50;4.63;;;19.40;99.90;;;;;;5031757;28;20193;-80
2022/07/19 02:54:47;;;;;;;6.00;4.28;;;19.30;99.90;;;;;;5031428;28;20260;-80
2022/07/19 02:57:14;;;;;;;5.20;4.65;;;19.30;99.90;;;;;;5031087;28;20199;-80
2022/07/19 02:59:41;;;;;;;5.32;4.78;;;19.30;99.90;;;;;;5031359;28;20314;-80
2022/07/19 03:02:08;;;;;;;5.25;4.75;;;19.30;99.90;;;;;;5031156;28;20199;-80
2022/07/19 03:04:37;;;;;;;5.53;4.40;;;19.30;99.90;;;;;;5031834;28;20226;-81
2022/07/19 03:07:03;;;;;;;6.93;4.72;;;19.20;99.90;;;;;;5031022;28;20486;-81
2022/07/19 03:09:30;;;;;;;4.93;4.53;;;19.20;99.90;;;;;;5030840;28;20206;-79
2022/07/19 03:11:57;;;;;;;7.53;4.85;;;19.20;99.90;;;;;;5031599;28;20205;-80
2022/07/19 03:14:24;;;;;;;5.15;4.65;;;19.10;99.90;;;;;;5031545;28;20275;-80
2022/07/19 03:16:51;;;;;;;7.57;5.07;;;19.10;99.90;;;;;;5030495;28;20254;-80
2022/07/19 03:19:18;;;;;;;5.47;4.47;;;19.10;99.90;;;;;;5031342;28;20199;-79
2022/07/19 03:21:46;;;;;;;6.20;4.95;;;19.10;99.90;;;;;;5030774;28;20700;-81
2022/07/19 03:24:13;;;;;;;9.55;6.07;;;19.10;99.90;;;;;;5031904;28;20528;-81
2022/07/19 03:26:40;;;;;;;5.45;4.90;;;19.00;99.90;;;;;;5034428;28;20211;-81
2022/07/19 03:29:06;;;;;;;6.00;4.35;;;19.00;99.90;;;;;;5014375;28;20206;-80
2022/07/19 03:31:33;;;;;;;5.68;4.65;;;19.00;99.90;;;;;;5015360;28;20210;-81
2022/07/19 03:34:00;;;;;;;5.32;4.53;;;19.00;99.90;;;;;;5018871;28;20241;-81
2022/07/19 03:36:27;;;;;;;5.85;4.97;;;19.00;99.90;;;;;;5034425;28;20202;-81
2022/07/19 03:38:56;;;;;;;4.82;4.40;;;18.90;99.90;;;;;;5034618;28;20205;-80
2022/07/19 03:41:23;;;;;;;5.32;4.82;;;18.90;99.90;;;;;;5033925;28;20206;-81
2022/07/19 03:43:50;;;;;;;6.82;5.15;;;18.90;99.90;;;;;;5033695;28;20232;-81
2022/07/19 03:46:18;;;;;;;5.32;4.32;;;18.80;99.90;;;;;;5034653;28;20203;-81
2022/07/19 03:48:45;;;;;;;6.30;4.60;;;18.80;99.90;;;;;;5034704;28;20206;-80
2022/07/19 03:51:11;;;;;;;5.70;4.43;;;18.80;99.90;;;;;;5033052;28;20202;-81
2022/07/19 03:53:38;;;;;;;5.65;4.35;;;18.80;99.90;;;;;;5034629;28;20469;-80
2022/07/19 03:56:07;;;;;;;5.75;4.80;;;18.80;99.90;;;;;;5033497;28;20198;-81
2022/07/19 03:58:34;;;;;;;6.40;5.00;;;18.80;99.90;;;;;;5033694;28;20200;-81
2022/07/19 04:01:02;;;;;;;5.47;4.82;;;18.80;99.90;;;;;;5034260;28;20253;-80
2022/07/19 04:03:28;;;;;;;6.35;4.47;;;18.70;99.90;;;;;;5031831;28;20190;-80
2022/07/19 04:05:55;;;;;;;5.03;4.40;;;18.70;99.90;;;;;;5014188;28;20199;-81
2022/07/19 04:08:22;;;;;;;5.95;4.32;;;18.80;99.90;;;;;;5014521;28;20206;-80
2022/07/19 04:10:49;;;;;;;8.88;5.25;;;18.80;99.90;;;;;;5023400;28;20613;-80
2022/07/19 04:13:17;;;;;;;5.13;4.60;;;18.70;99.90;;;;;;5033549;28;20617;-80
2022/07/19 04:15:44;;;;;;;5.88;4.82;;;18.70;99.90;;;;;;5034426;28;20208;-80
2022/07/19 04:18:11;;;;;;;5.60;4.35;;;18.70;99.90;;;;;;5033125;28;20203;-81
2022/07/19 04:20:38;;;;;;;5.95;4.50;;;18.70;99.90;;;;;;5033343;28;20198;-80
2022/07/19 04:23:05;;;;;;;5.45;4.85;;;18.70;99.90;;;;;;5034111;28;20298;-80
2022/07/19 04:25:32;;;;;;;6.03;4.82;;;18.70;99.90;;;;;;5033506;28;20226;-81
2022/07/19 04:27:59;;;;;;;6.10;5.03;;;18.80;99.90;;;;;;5033690;28;20233;-80
2022/07/19 04:30:27;;;;;;;6.68;5.57;;;18.80;99.90;;;;;;5033946;28;20197;-80
2022/07/19 04:32:54;;;;;;;5.65;4.78;;;18.80;99.90;;;;;;5033261;28;20198;-81
2022/07/19 04:35:21;;;;;;;5.78;5.28;;;18.80;99.90;;;;;;5031808;28;20209;-80
2022/07/19 04:37:47;;;;;;;5.60;4.50;;;18.80;99.90;;;;;;5033576;28;20578;-81
2022/07/19 04:40:14;;;;;;;6.03;5.43;;;18.90;99.90;;;;;;5031819;28;20293;-81
2022/07/19 04:42:41;;;;;;;7.00;4.88;;;18.90;99.90;;;;;;5033842;28;20229;-80
2022/07/19 04:45:09;;;;;;;6.82;5.78;;;18.90;99.90;;;;;;5033328;28;20309;-80
2022/07/19 04:47:37;;;;;;;5.13;4.60;;;18.90;99.90;;;;;;5033015;28;20205;-80
2022/07/19 04:50:05;;;;;;;5.78;4.95;;;19.00;99.90;;;;;;5033102;28;20201;-80
2022/07/19 04:52:32;;;;;;;5.32;4.80;;;19.00;99.90;;;;;;5033799;28;20214;-82
2022/07/19 04:54:59;;;;;;;6.63;5.10;;;19.00;99.90;;;;;;5032998;28;20199;-81
2022/07/19 04:57:25;;;;;;;6.03;5.40;;;19.10;99.90;;;;;;5033063;28;20206;-81
2022/07/19 04:59:52;;;;;;;6.75;5.07;;;19.10;99.90;;;;;;5032413;28;20238;-81
2022/07/19 05:02:19;;;;;;;9.55;6.22;;;19.10;99.90;;;;;;5032970;28;20506;-82
2022/07/19 05:04:47;;;;;;;5.40;4.90;;;19.20;99.90;;;;;;5032349;28;20223;-82
2022/07/19 05:07:14;;;;;;;6.03;5.43;;;19.20;99.90;;;;;;5032631;28;20302;-80
2022/07/19 05:09:41;;;;;;;5.97;4.97;;;19.20;99.90;;;;;;5032927;28;20501;-79
2022/07/19 05:12:09;;;;;;;8.73;5.88;;;19.30;99.90;;;;;;5032510;28;20203;-82
2022/07/19 05:14:36;;;;;;;6.05;5.07;;;19.30;99.90;;;;;;5032350;28;20573;-79
2022/07/19 05:17:03;;;;;;;5.25;4.75;;;19.40;99.90;;;;;;5032882;28;20202;-79
2022/07/19 05:19:30;;;;;;;5.93;4.70;;;19.40;99.90;;;;;;5033096;28;20607;-79
2022/07/19 05:21:58;;;;;;;5.47;4.97;;;19.50;99.90;;;;;;5032039;28;20376;-80
2022/07/19 05:24:25;;;;;;;5.47;4.88;;;19.60;99.90;;;;;;5032853;28;20510;-80
2022/07/19 05:26:52;;;;;;;8.05;5.10;;;19.60;99.90;;;;;;5032660;28;20471;-81
2022/07/19 05:29:18;;;;;;;6.75;5.47;;;19.70;99.90;;;;;;5032310;28;20237;-81
2022/07/19 05:31:46;;;;;;;4.57;4.18;;;19.80;99.90;;;;;;5032539;28;20214;-81
2022/07/19 05:34:13;;;;;;;5.10;4.50;;;19.80;99.90;;;;;;5032722;28;20199;-80
2022/07/19 05:36:40;;;;;;;4.38;4.03;;;20.00;99.90;;;;;;5031260;28;20649;-80
2022/07/19 05:39:08;;;;;;;5.90;5.05;;;20.10;99.90;;;;;;5032937;28;20595;-81
2022/07/19 05:41:35;;;;;;;5.20;4.70;;;20.20;99.90;;;;;;5033041;28;20222;-82
2022/07/19 05:44:04;;;;;;;7.57;5.18;;;20.40;99.90;;;;;;5031477;28;20300;-81
2022/07/19 05:46:31;;;;;;;5.63;4.68;;;20.50;99.90;;;;;;5032551;28;20214;-81
2022/07/19 05:48:58;;;;;;;6.97;5.35;;;20.70;99.90;;;;;;5032068;28;20244;-81
2022/07/19 05:51:25;;;;;;;4.60;4.20;;;21.00;99.90;;;;;;5032406;28;20248;-80
2022/07/19 05:53:51;;;;;;;7.25;4.72;;;21.20;99.90;;;;;;5032786;28;20245;-80
2022/07/19 05:56:20;;;;;;;6.70;4.63;;;21.40;99.90;;;;;;5031482;28;20198;-81
2022/07/19 05:58:46;;;;;;;5.35;4.25;;;21.70;99.90;;;;;;5031490;28;20236;-82
2022/07/19 06:01:19;;;;;;;6.80;4.60;;;21.90;99.90;;;;;;5032294;28;20199;-82
2022/07/19 06:03:46;;;;;;;7.53;4.22;;;22.20;99.90;;;;;;5031823;28;20225;-81
2022/07/19 06:06:15;;;;;;;7.13;4.22;;;22.40;99.90;;;;;;5031569;28;20245;-81
2022/07/19 06:08:42;;;;;;;8.63;4.65;;;22.70;99.90;;;;;;5032210;28;20226;-81
2022/07/19 06:11:09;;;;;;;6.13;4.63;;;22.90;99.90;;;;;;5031501;28;20212;-81
2022/07/19 06:13:37;;;;;;;6.47;4.22;;;23.20;96.20;;;;;;5032304;28;20651;-81
2022/07/19 06:16:05;;;;;;;8.23;4.15;;;23.60;73.20;;;;;;5032726;28;20190;-81
2022/07/19 06:18:34;;;;;;;7.93;4.55;;;23.80;28.80;;;;;;5031919;28;20202;-82
2022/07/19 06:21:01;;;;;;;8.20;4.57;;;24.10;14.80;;;;;;5031712;28;20268;-82
2022/07/19 06:23:29;;;;;;;6.28;4.03;;;24.40;1.00;;;;;;5032069;28;20197;-81
2022/07/19 06:25:56;;;;;;;7.55;4.18;;;24.70;1.00;;;;;;5031806;28;20514;-82
2022/07/19 06:28:23;;;;;;;8.95;3.83;;;25.00;1.00;;;;;;5031693;28;20595;-82
2022/07/19 06:30:51;;;;;;;9.32;4.53;;;25.30;1.00;;;;;;5027758;28;20604;-83
2022/07/19 06:33:18;;;;;;;9.02;4.20;;;25.60;1.00;;;;;;5012042;28;20285;-83
2022/07/19 06:35:48;;;;;;;7.00;3.92;;;25.80;1.00;;;;;;5016924;28;20245;-82
2022/07/19 06:38:15;;;;;;;8.70;4.18;;;26.10;1.00;;;;;;5031816;28;20281;-82
2022/07/19 06:40:42;;;;;;;8.20;4.00;;;26.40;1.00;;;;;;5031011;28;20298;-84
2022/07/19 06:43:09;;;;;;;9.10;4.07;;;26.70;1.00;;;;;;5031140;28;20230;-82
2022/07/19 06:45:36;;;;;;;7.95;4.05;;;26.90;99.90;;;;;;5030968;28;20222;-81
2022/07/19 06:48:06;;;;;;;10.82;3.80;;;27.20;99.90;;;;;;5029132;28;20294;-83
2022/07/19 06:50:33;;;;;;;12.60;4.38;;;27.50;1.00;;;;;;5025057;28;20690;-83
2022/07/19 06:53:00;;;;;;;11.15;3.90;;;27.70;99.90;;;;;;5026651;28;20298;-85
2022/07/19 06:55:27;;;;;;;9.48;4.10;;;27.80;1.00;;;;;;5012886;28;20484;-82
2022/07/19 06:57:54;;;;;;;7.55;3.95;;;28.10;1.00;;;;;;5012816;28;20210;-83
2022/07/19 07:00:21;;;;;;;6.28;3.80;;;28.30;99.90;;;;;;5026989;28;20227;-83
2022/07/19 07:02:47;;;;;;;8.60;4.32;;;28.60;99.90;;;;;;5024077;28;20650;-85
2022/07/19 07:05:16;;;;;;;3.88;3.08;;;28.80;1.00;;;;;;5035109;28;20219;-84
2022/07/19 07:07:43;;;;;;;5.40;3.80;;;29.00;1.00;;;;;;5024597;28;20222;-87
2022/07/19 07:10:11;;;;;;;10.43;3.70;;;29.30;1.00;;;;;;5033403;28;20195;-84
2022/07/19 07:12:38;;;;;;;6.32;3.58;;;29.50;1.00;;;;;;5035583;28;20494;-85
2022/07/19 07:15:07;;;;;;;10.93;3.97;;;29.70;1.00;;;;;;5034300;28;20210;-86
2022/07/19 07:17:34;;;;;;;9.80;3.78;;;30.00;99.90;;;;;;5035985;28;20206;-85
2022/07/19 07:20:01;;;;;;;9.00;4.30;;;30.40;99.90;;;;;;5035785;28;20210;-84
2022/07/19 07:22:30;;;;;;;7.50;3.90;;;30.50;99.90;;;;;;5032672;28;20211;-84
2022/07/19 07:24:57;;;;;;;5.72;3.65;;;30.70;99.90;;;;;;5035567;28;20689;-86
2022/07/19 07:27:24;;;;;;;17.05;4.65;;;30.90;99.90;;;;;;5034627;28;20294;-85
2022/07/19 07:29:51;;;;;;;7.07;3.58;;;31.10;99.90;;;;;;5034532;28;20627;-84
2022/07/19 07:32:19;;;;;;;11.30;4.28;;;31.20;99.90;;;;;;5035206;28;20196;-83
2022/07/19 07:34:45;;;;;;;8.85;3.38;;;31.50;99.90;;;;;;5035616;28;20198;-84
2022/07/19 07:37:12;;;;;;;11.88;3.92;;;31.70;99.90;;;;;;5033679;28;20278;-84
2022/07/19 07:39:41;;;;;;;8.63;3.92;;;31.90;99.90;;;;;;5035623;28;20199;-83
2022/07/19 07:42:08;;;;;;;12.55;4.43;;;32.00;99.90;;;;;;5035025;28;20657;-84
2022/07/19 07:44:34;;;;;;;7.07;4.07;;;32.00;99.90;;;;;;5027069;28;20213;-83
2022/07/19 07:47:01;;;;;;;9.90;3.78;;;32.10;99.90;;;;;;5025858;28;20332;-83
2022/07/19 07:49:30;;;;;;;8.18;3.90;;;32.30;99.90;;;;;;5023019;28;20199;-85
2022/07/19 07:51:56;;;;;;;7.63;3.55;;;32.40;99.90;;;;;;5024458;28;20231;-85
2022/07/19 07:54:23;;;;;;;7.78;3.58;;;32.70;99.90;;;;;;5021532;28;20205;-83
2022/07/19 07:56:52;;;;;;;10.85;3.58;;;32.80;99.90;;;;;;5024277;28;20223;-87
2022/07/19 07:59:18;;;;;;;7.82;3.50;;;33.10;99.90;;;;;;5028140;28;20238;-83
2022/07/19 08:01:45;;;;;;;3.97;3.00;;;33.30;99.90;;;;;;5021918;28;20222;-84
2022/07/19 08:04:12;;;;;;;4.50;2.65;;;33.40;99.90;;;;;;5021219;28;20210;-83
2022/07/19 08:06:39;;;;;;;9.00;2.72;;;33.60;99.90;;;;;;5024571;28;20241;-88
2022/07/19 08:09:06;;;;;;;6.38;3.00;;;33.80;99.90;;;;;;5026024;28;20611;-84
2022/07/19 08:11:33;;;;;;;4.75;2.55;;;33.90;99.90;;;;;;5015110;28;20262;-85
2022/07/19 08:14:02;;;;;;;7.35;2.58;;;34.00;99.90;;;;;;5022137;28;20206;-85
2022/07/19 08:16:29;;;;;;;6.22;2.60;;;34.20;99.90;;;;;;5026631;28;20200;-84
2022/07/19 08:18:55;;;;;;;3.42;2.10;;;34.30;99.90;;;;;;5014984;28;20600;-84
2022/07/19 08:21:22;;;;;;;8.27;2.47;;;34.60;99.90;;;;;;5015336;28;20203;-85
2022/07/19 08:23:49;;;;;;;4.38;2.30;;;34.90;99.90;;;;;;5029846;28;20210;-82
2022/07/19 08:26:16;;;;;;;7.57;2.47;;;34.90;99.90;;;;;;5017484;28;20309;-84
2022/07/19 08:28:44;;;;;;;5.65;2.38;;;35.00;99.90;;;;;;5035205;28;20591;-84
2022/07/19 08:31:12;;;;;;;9.32;2.33;;;35.10;99.90;;;;;;5034615;28;20190;-84
2022/07/19 08:33:40;;;;;;;5.93;2.40;;;35.20;99.90;;;;;;5033764;28;20265;-84
2022/07/19 08:36:09;;;;;;;5.72;2.80;;;35.10;99.90;;;;;;5035054;28;20191;-82
2022/07/19 08:41:03;;;;;;;5.15;2.15;;;35.00;99.90;;;;;;5035396;23;20241;-83
2022/07/19 08:43:30;;;;;;;5.15;2.20;;;35.30;99.90;;;;;;5031382;28;20203;-84
2022/07/19 08:46:00;;;;;;;4.50;2.50;;;35.40;99.90;;;;;;5014676;28;20231;-88
2022/07/19 08:48:31;;;;;;;6.53;2.53;;;35.50;99.90;;;;;;5023267;28;20281;-83
2022/07/19 08:51:00;;;;;;;5.18;2.97;;;35.60;99.90;;;;;;5023352;28;20218;-84
2022/07/19 08:53:30;;;;;;;3.47;2.55;;;35.90;99.90;;;;;;5021846;28;20215;-86
2022/07/19 08:55:57;;;;;;;4.53;2.40;;;35.90;99.90;;;;;;5020120;28;20427;-83
2022/07/19 08:58:23;;;;;;;4.50;2.33;;;36.20;99.90;;;;;;5029319;28;20203;-84
2022/07/19 09:00:50;;;;;;;9.25;3.00;;;36.20;99.90;;;;;;5032163;23;20235;-83
2022/07/19 09:03:17;;;;;;;4.30;2.40;;;36.00;99.90;;;;;;5029376;28;20400;-84
2022/07/19 09:05:45;;;;;;;4.00;2.70;;;35.90;99.90;;;;;;5028763;28;20218;-82
2022/07/19 09:08:15;;;;;;;5.22;2.72;;;36.10;99.90;;;;;;5025755;28;20199;-84
2022/07/19 09:10:44;;;;;;;5.13;2.13;;;36.10;99.90;;;;;;5016259;28;20206;-84
2022/07/19 09:13:13;;;;;;;4.80;2.30;;;36.00;99.90;;;;;;5019112;28;20211;-83
2022/07/19 09:15:43;;;;;;;7.25;2.38;;;36.10;99.90;;;;;;5034588;28;20199;-84
2022/07/19 09:18:12;;;;;;;7.43;2.38;;;36.40;99.90;;;;;;5033772;28;20595;-84
2022/07/19 09:20:40;;;;;;;5.28;2.33;;;36.60;99.90;;;;;;5033272;28;20237;-82
2022/07/19 09:23:08;;;;;;;8.32;2.40;;;36.30;99.90;;;;;;5034045;28;20201;-84
2022/07/19 09:25:37;;;;;;;4.13;2.53;;;36.20;99.90;;;;;;5032630;28;20230;-86
2022/07/19 09:28:04;;;;;;;7.07;2.50;;;36.40;99.90;;;;;;5034220;28;20206;-83
2022/07/19 09:30:37;;;;;;;7.18;2.22;;;36.50;99.90;;;;;;5040726;23;20238;-84
2022/07/19 09:33:13;;;;;;;4.13;2.17;;;36.40;99.90;;;;;;5032073;28;20293;-82
2022/07/19 09:35:43;;;;;;;4.40;2.10;;;36.40;99.90;;;;;;5032985;28;20295;-83
2022/07/19 09:38:31;;;;;;;8.43;2.33;;;36.50;99.90;;;;;;5034001;28;20289;-84
2022/07/19 09:41:10;;;;;;;3.95;1.90;;;36.30;99.90;;;;;;5022955;23;20191;-82
2022/07/19 09:43:53;;;;;;;5.72;2.08;;;36.40;99.90;;;;;;5033412;28;20183;-82
2022/07/19 09:46:34;;;;;;;5.85;2.00;;;36.60;99.90;;;;;;5040807;28;20282;-82
2022/07/19 09:49:08;;;;;;;6.63;2.17;;;36.30;99.90;;;;;;5042906;28;20215;-83
2022/07/19 09:51:37;;;;;;;5.38;2.50;;;36.30;99.90;;;;;;5045055;28;20265;-84
2022/07/19 09:54:07;;;;;;;3.53;2.33;;;36.60;99.90;;;;;;5040090;28;20277;-84
2022/07/19 09:56:36;;;;;;;6.60;2.17;;;36.60;99.90;;;;;;5040132;28;20201;-82
2022/07/19 09:59:04;;;;;;;4.28;2.17;;;36.60;99.90;;;;;;5038115;28;20225;-81
2022/07/19 10:01:31;;;;;;;5.55;2.08;;;36.80;99.90;;;;;;5039255;28;20210;-85
2022/07/19 10:04:03;;;;;;;4.55;2.03;;;37.00;99.90;;;;;;5038690;28;20627;-86
2022/07/19 10:06:31;;;;;;;4.47;2.30;;;36.90;99.90;;;;;;5038417;28;20616;-82
2022/07/19 10:08:59;;;;;;;4.50;1.90;;;36.80;99.90;;;;;;5037108;28;20202;-82
2022/07/19 10:11:30;;;;;;;4.82;1.80;;;36.60;99.90;;;;;;5039329;28;20221;-83
2022/07/19 10:13:57;;;;;;;2.83;1.50;;;36.70;99.90;;;;;;5040562;28;20239;-82
2022/07/19 10:16:44;;;;;;;6.50;2.00;;;36.50;99.90;;;;;;5038130;28;20590;-84
2022/07/19 10:19:17;;;;;;;4.38;2.05;;;36.60;99.90;;;;;;5026403;28;20621;-83
2022/07/19 10:21:45;;;;;;;3.13;1.80;;;36.40;99.90;;;;;;5017418;28;20251;-83
2022/07/19 10:24:12;;;;;;;5.32;1.83;;;36.60;99.90;;;;;;5031167;28;20611;-84
2022/07/19 10:26:42;;;;;;;2.85;1.90;;;36.40;99.90;;;;;;5036204;28;20245;-81
2022/07/19 10:29:10;;;;;;;5.55;2.22;;;36.40;99.90;;;;;;5036321;28;20183;-84
2022/07/19 10:31:38;;;;;;;3.92;2.03;;;36.50;99.90;;;;;;5034055;28;20198;-84
2022/07/19 10:34:06;;;;;;;5.90;2.00;;;36.60;99.90;;;;;;5033777;28;20505;-81
2022/07/19 10:36:44;;;;;;;4.75;1.92;;;36.60;99.90;;;;;;5036229;28;20222;-82
2022/07/19 10:39:27;;;;;;;4.50;1.73;;;36.90;99.90;;;;;;5035198;28;20232;-82
2022/07/19 10:42:18;;;;;;;2.70;1.60;;;37.00;99.90;;;;;;5036179;28;20570;-82
2022/07/19 10:45:15;;;;;;;3.67;1.80;;;37.40;99.90;;;;;;5035256;28;20285;-82
2022/07/19 10:48:01;;;;;;;6.40;2.13;;;37.50;99.90;;;;;;5036293;28;20252;-85
2022/07/19 10:50:50;;;;;;;6.68;1.90;;;37.40;99.90;;;;;;5035619;28;20209;-82
2022/07/19 10:53:55;;;;;;;1.92;1.60;;;37.00;99.90;;;;;;5033818;28;20290;-81
2022/07/19 10:56:24;;;;;;;3.50;1.90;;;37.30;99.90;;;;;;5036344;28;20186;-86
2022/07/19 10:58:54;;;;;;;5.43;2.00;;;37.50;99.90;;;;;;5034309;28;20798;-81
2022/07/19 11:01:23;;;;;;;3.00;1.85;;;37.60;99.90;;;;;;5035506;28;20265;-83
2022/07/19 11:03:51;;;;;;;4.55;1.73;;;37.80;99.90;;;;;;5035981;28;20199;-82
2022/07/19 11:06:23;;;;;;;5.40;2.00;;;38.10;99.90;;;;;;5034914;28;20228;-85
2022/07/19 11:08:54;;;;;;;3.80;2.10;;;38.20;99.90;;;;;;5036267;28;20206;-84
2022/07/19 11:11:21;;;;;;;4.63;2.17;;;38.20;99.90;;;;;;5034785;28;20222;-82
2022/07/19 11:13:50;;;;;;;3.03;1.85;;;38.20;99.90;;;;;;5035894;28;20209;-82
2022/07/19 11:16:18;;;;;;;2.88;2.00;;;38.30;99.90;;;;;;5036216;28;20198;-84
2022/07/19 11:18:46;;;;;;;6.20;2.08;;;38.10;99.90;;;;;;5036143;28;20278;-82
2022/07/19 11:21:15;;;;;;;5.30;2.00;;;38.30;99.90;;;;;;5036054;28;20229;-83
2022/07/19 11:23:43;;;;;;;8.73;2.33;;;38.30;99.90;;;;;;5035774;28;20230;-82
2022/07/19 11:26:11;;;;;;;4.38;1.92;;;38.30;99.90;;;;;;5035785;28;20801;-86
2022/07/19 11:28:40;;;;;;;5.40;2.03;;;38.50;99.90;;;;;;5035289;28;20229;-83
2022/07/19 11:31:18;;;;;;;2.78;1.98;;;38.70;99.90;;;;;;5035950;28;20198;-85
2022/07/19 11:33:47;;;;;;;6.05;1.92;;;38.70;99.90;;;;;;5034291;28;20202;-85
2022/07/19 11:36:16;;;;;;;4.03;2.30;;;38.70;99.90;;;;;;5035489;28;20668;-83
2022/07/19 11:38:45;;;;;;;5.28;2.20;;;38.50;99.90;;;;;;5035156;28;20218;-84
2022/07/19 11:41:18;;;;;;;3.70;2.00;;;38.60;99.90;;;;;;5034268;28;20274;-82
2022/07/19 11:43:45;;;;;;;4.05;2.55;;;38.60;99.90;;;;;;5025913;28;20230;-81
2022/07/19 11:46:18;;;;;;;3.65;1.85;;;38.40;99.90;;;;;;5015004;28;20584;-81
2022/07/19 11:48:45;;;;;;;4.70;2.50;;;38.20;99.90;;;;;;5016607;28;20503;-83
2022/07/19 11:51:11;;;;;;;5.30;2.17;;;38.20;99.60;;;;;;5030078;28;20230;-84
2022/07/19 11:53:40;;;;;;;3.28;1.95;;;38.00;99.90;;;;;;5035874;28;20314;-84
2022/07/19 11:56:17;;;;;;;5.32;2.10;;;38.10;99.40;;;;;;5035079;28;20594;-83
2022/07/19 11:58:44;;;;;;;7.68;2.10;;;38.20;99.90;;;;;;5034346;28;20199;-83
2022/07/19 12:01:11;;;;;;;8.80;2.00;;;38.40;99.90;;;;;;5035609;28;20280;-86
2022/07/19 12:03:40;;;;;;;3.10;1.98;;;38.30;97.90;;;;;;5034340;28;20218;-86
2022/07/19 12:06:08;;;;;;;5.80;2.40;;;38.30;99.50;;;;;;5033585;28;20658;-83
2022/07/19 12:08:43;;;;;;;4.78;1.83;;;38.20;97.70;;;;;;5034794;28;20225;-83
2022/07/19 12:11:21;;;;;;;4.05;1.88;;;38.20;99.10;;;;;;5031282;28;20320;-82
2022/07/19 12:13:49;;;;;;;5.55;2.08;;;38.30;99.90;;;;;;5034334;28;20205;-82
2022/07/19 12:16:19;;;;;;;4.07;1.85;;;38.20;99.20;;;;;;5032576;28;20584;-82
2022/07/19 12:18:50;;;;;;;3.40;2.33;;;38.10;98.80;;;;;;5033722;28;20194;-86
2022/07/19 12:21:18;;;;;;;3.47;1.85;;;38.40;99.30;;;;;;5034442;28;20643;-82
2022/07/19 12:24:13;;;;;;;3.53;2.00;;;38.50;97.40;;;;;;5032833;28;20306;-84
2022/07/19 12:26:42;;;;;;;2.92;2.00;;;38.40;97.60;;;;;;5033232;28;20650;-84
2022/07/19 12:29:21;;;;;;;2.38;2.10;;;38.40;97.00;;;;;;5034251;28;20205;-84
2022/07/19 12:31:49;;;;;;;3.38;1.92;;;38.50;97.60;;;;;;5032673;28;20202;-86
2022/07/19 12:34:19;;;;;;;4.65;2.17;;;38.60;98.20;;;;;;5034016;28;20568;-87
2022/07/19 12:36:46;;;;;;;5.30;1.95;;;38.50;97.50;;;;;;5033405;28;20298;-85
2022/07/19 12:39:26;;;;;;;4.78;2.08;;;38.40;97.30;;;;;;5033790;28;20211;-88
2022/07/19 12:42:00;;;;;;;5.93;2.08;;;38.20;95.80;;;;;;5034127;28;20252;-85
2022/07/19 12:44:28;;;;;;;3.20;1.98;;;38.10;96.00;;;;;;5032607;28;20202;-84
2022/07/19 12:46:55;;;;;;;6.57;1.98;;;38.30;97.10;;;;;;5033897;28;20230;-83
2022/07/19 12:49:24;;;;;;;3.55;1.40;;;38.30;97.30;;;;;;5033290;28;20202;-82
2022/07/19 12:51:51;;;;;;;3.38;1.75;;;38.40;96.70;;;;;;5021126;28;20610;-81
2022/07/19 12:54:18;;;;;;;2.10;1.77;;;38.50;95.30;;;;;;5020819;28;20288;-81
2022/07/19 12:56:45;;;;;;;5.55;1.65;;;38.60;96.00;;;;;;5012951;28;20202;-83